Time;durP1;ratioP1;P1;durP2;ratioP2;P2;SDS_P1;SDS_P2;PMS_P1;PMS_P2;Temp;Humidity;BMP_temperature;BMP_pressure;BME280_temperature;BME280_humidity;BME280_pressure;Samples;Min_cycle;Max_cycle;Signal;HPM_P1;HPM_P2
2024/04/18 00:00:09;;;;;;;3.75;2.95;;;;;;;;;;14062607;21;20311;-91
2024/04/18 00:05:13;;;;;;;3.67;2.90;;;;;;;;;;14062375;21;20315;-91
2024/04/18 00:10:18;;;;;;;4.20;3.13;;;;;;;;;;14063530;21;20316;-92
2024/04/18 00:15:24;;;;;;;3.70;3.03;;;;;;;;;;14062816;21;20381;-91
2024/04/18 00:20:30;;;;;;;4.18;2.90;;;;;;;;;;14063318;21;20471;-91
2024/04/18 00:25:34;;;;;;;3.30;3.00;;;;;;;;;;14063448;21;20421;-91
2024/04/18 00:30:41;;;;;;;3.88;3.10;;;;;;;;;;14063974;21;20318;-90
2024/04/18 00:35:44;;;;;;;3.63;3.05;;;;;;;;;;14063219;21;20320;-91
2024/04/18 00:40:48;;;;;;;4.77;3.20;;;;;;;;;;14062864;21;20304;-91
2024/04/18 00:45:55;;;;;;;4.30;2.95;;;;;;;;;;14061999;21;20319;-91
2024/04/18 00:51:02;;;;;;;3.95;3.10;;;;;;;;;;14060705;21;20324;-90
2024/04/18 00:56:06;;;;;;;3.90;3.30;;;;;;;;;;14061488;21;20324;-91
2024/04/18 01:01:13;;;;;;;6.40;3.40;;;;;;;;;;14068967;21;20316;-91
2024/04/18 01:06:18;;;;;;;3.72;2.80;;;;;;;;;;14061160;21;20330;-91
2024/04/18 01:11:22;;;;;;;4.47;2.60;;;;;;;;;;14061861;21;20395;-91
2024/04/18 01:16:28;;;;;;;2.92;2.60;;;;;;;;;;14061221;21;20412;-91
2024/04/18 01:21:32;;;;;;;3.53;2.65;;;;;;;;;;14061498;21;20320;-90
2024/04/18 01:26:39;;;;;;;3.42;2.63;;;;;;;;;;14062581;21;20315;-91
2024/04/18 01:31:43;;;;;;;4.45;2.70;;;;;;;;;;14058754;20;20316;-91
2024/04/18 01:36:48;;;;;;;3.90;2.42;;;;;;;;;;14054647;21;20915;-91
2024/04/18 01:41:54;;;;;;;2.97;2.10;;;;;;;;;;14056144;21;20899;-91
2024/04/18 01:46:58;;;;;;;2.70;2.10;;;;;;;;;;14054251;21;20366;-91
2024/04/18 01:52:02;;;;;;;2.58;1.92;;;;;;;;;;14061532;21;20396;-92
2024/04/18 01:57:08;;;;;;;3.17;2.10;;;;;;;;;;14060663;21;20320;-91
2024/04/18 02:02:13;;;;;;;2.17;1.80;;;;;;;;;;14065494;21;20323;-91
2024/04/18 02:07:17;;;;;;;2.43;2.07;;;;;;;;;;14066223;21;20304;-91
2024/04/18 02:12:23;;;;;;;2.58;2.05;;;;;;;;;;14065846;21;20315;-91
2024/04/18 02:17:27;;;;;;;2.97;1.95;;;;;;;;;;14065567;21;20315;-91
2024/04/18 02:22:31;;;;;;;3.08;1.65;;;;;;;;;;14064517;21;20398;-91
2024/04/18 02:27:38;;;;;;;2.70;1.80;;;;;;;;;;14065432;21;20396;-91
2024/04/18 02:32:42;;;;;;;2.80;1.58;;;;;;;;;;14065155;21;21172;-91
2024/04/18 02:37:46;;;;;;;2.80;2.13;;;;;;;;;;14064918;21;20324;-91
2024/04/18 02:42:52;;;;;;;2.63;1.77;;;;;;;;;;14070032;21;20400;-90
2024/04/18 02:47:56;;;;;;;1.93;1.70;;;;;;;;;;14063950;21;20426;-92
2024/04/18 02:53:00;;;;;;;1.67;1.33;;;;;;;;;;14065350;21;20320;-91
2024/04/18 02:58:07;;;;;;;1.95;1.50;;;;;;;;;;14065100;21;20319;-91
2024/04/18 03:03:11;;;;;;;2.55;1.40;;;;;;;;;;14064931;21;20323;-90
2024/04/18 03:08:15;;;;;;;2.38;1.10;;;;;;;;;;14062844;21;20406;-91
2024/04/18 03:13:21;;;;;;;0.90;0.90;;;;;;;;;;14063857;21;20324;-92
2024/04/18 03:18:25;;;;;;;2.63;0.90;;;;;;;;;;14064106;21;20408;-91
2024/04/18 03:23:29;;;;;;;1.10;0.60;;;;;;;;;;14062681;21;20315;-90
2024/04/18 03:28:35;;;;;;;1.10;0.60;;;;;;;;;;14064009;21;20320;-91
2024/04/18 03:33:39;;;;;;;1.25;0.60;;;;;;;;;;14064005;21;20816;-91
2024/04/18 03:38:43;;;;;;;0.75;0.60;;;;;;;;;;14063911;21;20319;-92
2024/04/18 03:43:50;;;;;;;1.50;1.00;;;;;;;;;;14060844;21;20951;-90
2024/04/18 03:48:53;;;;;;;0.53;0.50;;;;;;;;;;14063503;21;20315;-91
2024/04/18 03:53:57;;;;;;;0.95;0.70;;;;;;;;;;14062035;21;20426;-91
2024/04/18 03:59:04;;;;;;;0.82;0.68;;;;;;;;;;14062525;21;20370;-91
2024/04/18 04:04:08;;;;;;;1.75;0.70;;;;;;;;;;14062450;21;20416;-89
2024/04/18 04:09:12;;;;;;;1.20;0.80;;;;;;;;;;14063388;21;20307;-91
2024/04/18 04:14:19;;;;;;;1.23;0.75;;;;;;;;;;14061939;21;20312;-91
2024/04/18 04:19:23;;;;;;;1.88;0.80;;;;;;;;;;14062343;21;20375;-90
2024/04/18 04:24:27;;;;;;;0.80;0.77;;;;;;;;;;14076928;21;20311;-92
2024/04/18 04:29:33;;;;;;;3.80;0.90;;;;;;;;;;14064249;21;20377;-90
2024/04/18 04:34:37;;;;;;;1.10;0.80;;;;;;;;;;14061868;21;20315;-91
2024/04/18 04:39:41;;;;;;;1.55;0.85;;;;;;;;;;14061080;21;20412;-88
2024/04/18 04:44:47;;;;;;;1.23;0.70;;;;;;;;;;14062073;21;20411;-89
2024/04/18 04:49:51;;;;;;;2.00;0.80;;;;;;;;;;14058597;21;20315;-88
2024/04/18 04:54:55;;;;;;;1.15;0.77;;;;;;;;;;14060986;21;20304;-89
2024/04/18 05:00:02;;;;;;;0.80;0.80;;;;;;;;;;14061419;21;20389;-89
2024/04/18 05:05:06;;;;;;;1.92;0.85;;;;;;;;;;14060140;21;20311;-89
2024/04/18 05:10:10;;;;;;;0.60;0.60;;;;;;;;;;14059971;21;20413;-89
2024/04/18 05:15:16;;;;;;;0.90;0.77;;;;;;;;;;14059049;21;20323;-89
2024/04/18 05:20:20;;;;;;;1.23;0.80;;;;;;;;;;14058521;21;20320;-88
2024/04/18 05:25:25;;;;;;;1.70;0.70;;;;;;;;;;14056866;21;20312;-89
2024/04/18 05:35:51;;;;;;;2.95;1.10;;;;;;;;;;14067464;21;20323;-88
2024/04/18 05:40:55;;;;;;;1.02;0.90;;;;;;;;;;14058651;21;20381;-89
2024/04/18 05:46:01;;;;;;;2.22;1.10;;;;;;;;;;14056504;21;20407;-88
2024/04/18 05:51:05;;;;;;;5.10;1.30;;;;;;;;;;14060711;21;20308;-90
2024/04/18 05:56:09;;;;;;;2.08;1.30;;;;;;;;;;14054887;21;20439;-89
2024/04/18 06:01:16;;;;;;;2.03;1.40;;;;;;;;;;14057239;21;20312;-89
2024/04/18 06:06:20;;;;;;;1.80;1.10;;;;;;;;;;14066570;21;20416;-93
2024/04/18 06:11:35;;;;;;;1.85;0.93;;;;;;;;;;14064729;21;20315;-89
2024/04/18 06:16:42;;;;;;;1.10;0.80;;;;;;;;;;14063398;21;20504;-89
2024/04/18 06:21:46;;;;;;;2.00;0.90;;;;;;;;;;14064984;21;20311;-89
2024/04/18 06:26:49;;;;;;;3.00;0.95;;;;;;;;;;14064164;21;20311;-89
2024/04/18 06:31:56;;;;;;;1.15;0.82;;;;;;;;;;14058327;21;20373;-88
2024/04/18 06:37:01;;;;;;;1.30;0.70;;;;;;;;;;14059169;21;20372;-89
2024/04/18 06:42:05;;;;;;;0.70;0.60;;;;;;;;;;14059148;21;20305;-88
2024/04/18 06:47:12;;;;;;;0.87;0.70;;;;;;;;;;14060089;21;20708;-89
2024/04/18 06:52:15;;;;;;;0.70;0.60;;;;;;;;;;14072385;21;20758;-89
2024/04/18 06:57:19;;;;;;;1.95;0.40;;;;;;;;;;14060386;21;20312;-91
2024/04/18 07:02:26;;;;;;;0.80;0.40;;;;;;;;;;14064240;21;20379;-90
2024/04/18 07:07:30;;;;;;;1.83;0.52;;;;;;;;;;14062960;21;20327;-88
2024/04/18 07:12:34;;;;;;;0.90;0.57;;;;;;;;;;14063261;21;20377;-91
2024/04/18 07:17:40;;;;;;;0.60;0.60;;;;;;;;;;14061968;21;20319;-90
2024/04/18 07:22:44;;;;;;;0.55;0.45;;;;;;;;;;14059673;21;20319;-89
2024/04/18 07:27:48;;;;;;;0.45;0.45;;;;;;;;;;14061315;21;20324;-89
2024/04/18 07:32:54;;;;;;;0.63;0.47;;;;;;;;;;14064770;21;20703;-90
2024/04/18 07:37:58;;;;;;;0.40;0.37;;;;;;;;;;14061945;21;20416;-93
2024/04/18 07:43:02;;;;;;;1.80;0.60;;;;;;;;;;14061933;21;20311;-91
2024/04/18 07:48:09;;;;;;;2.50;0.97;;;;;;;;;;14075616;21;20390;-90
2024/04/18 07:53:13;;;;;;;0.70;0.40;;;;;;;;;;14064392;21;20663;-91
2024/04/18 07:58:17;;;;;;;0.63;0.60;;;;;;;;;;14061777;21;20320;-90
2024/04/18 08:03:24;;;;;;;0.40;0.30;;;;;;;;;;14062267;21;20778;-92
2024/04/18 08:08:27;;;;;;;1.00;0.60;;;;;;;;;;14067667;21;20339;-89
2024/04/18 08:13:31;;;;;;;1.30;0.75;;;;;;;;;;14068144;21;20311;-90
2024/04/18 08:18:38;;;;;;;0.57;0.37;;;;;;;;;;14063197;21;20423;-89
2024/04/18 08:23:50;;;;;;;2.87;0.90;;;;;;;;;;14062193;21;20902;-89
2024/04/18 08:28:54;;;;;;;0.50;0.30;;;;;;;;;;14061397;21;20382;-89
2024/04/18 08:34:01;;;;;;;1.05;0.40;;;;;;;;;;14060819;21;20418;-89
2024/04/18 08:39:04;;;;;;;1.10;0.47;;;;;;;;;;14060961;21;20386;-89
2024/04/18 08:44:09;;;;;;;0.65;0.43;;;;;;;;;;14060071;21;20409;-90
2024/04/18 08:49:16;;;;;;;0.82;0.65;;;;;;;;;;14061785;21;20315;-89
2024/04/18 08:54:20;;;;;;;0.70;0.50;;;;;;;;;;14060961;21;20402;-89
2024/04/18 08:59:24;;;;;;;1.65;1.00;;;;;;;;;;14061825;21;20404;-90
2024/04/18 09:04:34;;;;;;;2.70;0.65;;;;;;;;;;14059792;21;20320;-89
2024/04/18 09:09:38;;;;;;;2.00;0.40;;;;;;;;;;14063617;21;20323;-89
2024/04/18 09:14:42;;;;;;;1.75;0.60;;;;;;;;;;14067356;21;20319;-90
2024/04/18 09:19:49;;;;;;;0.70;0.40;;;;;;;;;;14064146;21;20891;-89
2024/04/18 09:24:53;;;;;;;3.17;0.40;;;;;;;;;;14064751;21;20409;-89
2024/04/18 09:29:57;;;;;;;1.27;0.60;;;;;;;;;;14077057;21;20381;-89
2024/04/18 09:35:06;;;;;;;1.80;0.50;;;;;;;;;;14066394;21;20741;-90
2024/04/18 09:40:12;;;;;;;2.17;0.80;;;;;;;;;;14066021;21;20371;-89
2024/04/18 09:45:21;;;;;;;1.90;0.53;;;;;;;;;;14065378;21;20758;-88
2024/04/18 09:50:29;;;;;;;1.50;0.60;;;;;;;;;;14064085;21;20304;-88
2024/04/18 09:55:34;;;;;;;2.53;0.57;;;;;;;;;;14064045;21;20320;-89
2024/04/18 10:00:38;;;;;;;1.80;0.50;;;;;;;;;;14063409;21;20384;-88
2024/04/18 10:05:48;;;;;;;0.65;0.60;;;;;;;;;;14062808;21;20399;-88
2024/04/18 10:10:53;;;;;;;0.77;0.40;;;;;;;;;;14063404;21;20402;-88
2024/04/18 10:16:06;;;;;;;1.30;0.43;;;;;;;;;;14063597;21;20386;-88
2024/04/18 10:21:15;;;;;;;0.52;0.38;;;;;;;;;;14064008;21;20312;-88
2024/04/18 10:26:20;;;;;;;0.60;0.60;;;;;;;;;;14064446;21;20316;-89
2024/04/18 10:31:30;;;;;;;1.02;0.47;;;;;;;;;;14063008;21;20316;-88
2024/04/18 10:36:38;;;;;;;0.63;0.57;;;;;;;;;;14060850;21;20311;-88
2024/04/18 10:41:47;;;;;;;0.65;0.20;;;;;;;;;;14063959;21;20404;-88
2024/04/18 10:46:54;;;;;;;1.50;0.20;;;;;;;;;;14071400;21;20357;-89
2024/04/18 10:52:01;;;;;;;0.17;0.13;;;;;;;;;;14073307;21;20371;-89
2024/04/18 10:57:05;;;;;;;1.60;0.43;;;;;;;;;;14062442;21;20395;-89
2024/04/18 11:02:10;;;;;;;0.30;0.30;;;;;;;;;;14061939;21;20331;-87
2024/04/18 11:07:17;;;;;;;1.15;0.40;;;;;;;;;;14063628;21;20401;-88
2024/04/18 11:12:21;;;;;;;0.60;0.30;;;;;;;;;;14078155;21;20473;-89
2024/04/18 11:17:25;;;;;;;3.38;0.55;;;;;;;;;;14062309;21;20414;-89
2024/04/18 11:22:32;;;;;;;1.58;0.70;;;;;;;;;;14064530;21;20672;-89
2024/04/18 11:27:37;;;;;;;0.80;0.47;;;;;;;;;;14062418;21;20384;-89
2024/04/18 11:32:41;;;;;;;0.80;0.47;;;;;;;;;;14048846;20;20664;-88
2024/04/18 11:37:48;;;;;;;1.20;0.40;;;;;;;;;;14049798;21;20429;-89
2024/04/18 11:42:52;;;;;;;3.05;0.60;;;;;;;;;;14048506;21;20351;-88
2024/04/18 11:47:59;;;;;;;0.70;0.70;;;;;;;;;;14051314;21;20335;-88
2024/04/18 11:53:06;;;;;;;1.95;1.00;;;;;;;;;;14049860;21;20328;-91
2024/04/18 11:58:10;;;;;;;1.17;0.70;;;;;;;;;;14052329;21;20395;-88
2024/04/18 12:03:14;;;;;;;0.70;0.30;;;;;;;;;;14060301;21;20756;-88
2024/04/18 12:08:20;;;;;;;0.60;0.30;;;;;;;;;;14069920;21;20398;-89
2024/04/18 12:13:26;;;;;;;3.20;0.52;;;;;;;;;;14062238;21;20323;-89
2024/04/18 12:18:30;;;;;;;0.68;0.57;;;;;;;;;;14058197;21;20320;-89
2024/04/18 12:23:42;;;;;;;0.93;0.50;;;;;;;;;;14061010;21;20347;-90
2024/04/18 12:28:46;;;;;;;0.77;0.47;;;;;;;;;;14059430;21;20434;-89
2024/04/18 12:33:50;;;;;;;0.60;0.50;;;;;;;;;;14060216;21;20319;-89
2024/04/18 12:38:56;;;;;;;1.15;0.57;;;;;;;;;;14060825;21;20485;-89
2024/04/18 12:44:00;;;;;;;0.95;0.40;;;;;;;;;;14060856;21;20316;-89
2024/04/18 12:49:04;;;;;;;0.80;0.40;;;;;;;;;;14060842;21;20311;-88
2024/04/18 12:54:11;;;;;;;0.82;0.50;;;;;;;;;;14076179;21;20300;-88
2024/04/18 12:59:16;;;;;;;1.65;0.93;;;;;;;;;;14059851;21;20795;-91
2024/04/18 13:04:20;;;;;;;0.60;0.40;;;;;;;;;;14058868;21;20312;-88
2024/04/18 13:09:27;;;;;;;0.50;0.30;;;;;;;;;;14059062;21;20355;-89
2024/04/18 13:14:31;;;;;;;0.30;0.30;;;;;;;;;;14058475;21;20400;-87
2024/04/18 13:19:35;;;;;;;1.83;0.28;;;;;;;;;;14058755;21;20316;-89
2024/04/18 13:24:43;;;;;;;0.90;0.30;;;;;;;;;;14055921;21;20466;-89
2024/04/18 13:29:46;;;;;;;0.90;0.40;;;;;;;;;;14044237;21;20320;-89
2024/04/18 13:34:53;;;;;;;1.30;0.40;;;;;;;;;;14058019;21;20418;-88
2024/04/18 13:39:59;;;;;;;1.83;0.52;;;;;;;;;;14056309;21;20698;-88
2024/04/18 13:45:03;;;;;;;0.93;0.50;;;;;;;;;;14053508;21;20312;-88
2024/04/18 13:50:07;;;;;;;0.40;0.40;;;;;;;;;;14053990;21;21164;-89
2024/04/18 13:55:16;;;;;;;0.73;0.50;;;;;;;;;;14057757;21;20314;-89
2024/04/18 14:00:20;;;;;;;1.05;0.40;;;;;;;;;;14062227;21;20903;-88
2024/04/18 14:05:24;;;;;;;0.30;0.30;;;;;;;;;;14049768;21;20320;-89
2024/04/18 14:10:30;;;;;;;1.00;0.40;;;;;;;;;;14058958;20;20880;-89
2024/04/18 14:15:48;;;;;;;1.48;0.40;;;;;;;;;;14050846;21;20332;-89
2024/04/18 14:20:54;;;;;;;1.00;0.50;;;;;;;;;;14051039;21;20437;-90
2024/04/18 14:26:02;;;;;;;0.87;0.50;;;;;;;;;;14053463;21;20429;-87
2024/04/18 14:31:06;;;;;;;0.80;0.73;;;;;;;;;;14052838;21;20495;-89
2024/04/18 14:36:10;;;;;;;0.63;0.50;;;;;;;;;;14065160;21;20319;-89
2024/04/18 14:41:16;;;;;;;0.45;0.30;;;;;;;;;;14058792;21;20324;-89
2024/04/18 14:46:21;;;;;;;1.20;0.40;;;;;;;;;;14070614;21;20411;-89
2024/04/18 14:51:25;;;;;;;0.40;0.40;;;;;;;;;;14053594;21;20324;-89
2024/04/18 14:56:31;;;;;;;0.98;0.40;;;;;;;;;;14051699;21;20395;-88
2024/04/18 15:01:35;;;;;;;1.17;0.50;;;;;;;;;;14051599;21;20331;-89
2024/04/18 15:06:39;;;;;;;1.20;0.50;;;;;;;;;;14051140;21;20327;-89
2024/04/18 15:11:46;;;;;;;2.22;0.52;;;;;;;;;;14048269;21;20433;-88
2024/04/18 15:16:49;;;;;;;0.80;0.65;;;;;;;;;;14048276;21;20328;-89
2024/04/18 15:21:53;;;;;;;0.95;0.60;;;;;;;;;;14027529;20;20448;-81
2024/04/18 15:27:02;;;;;;;0.90;0.80;;;;;;;;;;14028213;21;20507;-79
2024/04/18 15:32:06;;;;;;;1.50;0.90;;;;;;;;;;14026325;21;20394;-79
2024/04/18 15:37:10;;;;;;;1.00;0.60;;;;;;;;;;14030309;21;20307;-81
2024/04/18 15:42:17;;;;;;;0.65;0.50;;;;;;;;;;14033041;21;20438;-79
2024/04/18 15:47:20;;;;;;;1.50;0.70;;;;;;;;;;14032621;21;20443;-79
2024/04/18 15:52:24;;;;;;;0.70;0.60;;;;;;;;;;14029620;21;20868;-79
2024/04/18 15:57:31;;;;;;;1.50;0.65;;;;;;;;;;14026926;21;20433;-79
2024/04/18 16:02:35;;;;;;;0.82;0.40;;;;;;;;;;14031326;21;20447;-79
2024/04/18 16:07:39;;;;;;;0.70;0.30;;;;;;;;;;14031955;21;20882;-79
2024/04/18 16:12:45;;;;;;;0.30;0.30;;;;;;;;;;14029169;21;20470;-79
2024/04/18 16:17:49;;;;;;;0.38;0.30;;;;;;;;;;14031138;21;21002;-79
2024/04/18 16:22:53;;;;;;;1.02;0.50;;;;;;;;;;14029118;21;20372;-80
2024/04/18 16:27:59;;;;;;;0.88;0.40;;;;;;;;;;14030077;21;20372;-79
2024/04/18 16:33:03;;;;;;;0.80;0.32;;;;;;;;;;14018386;21;20426;-79
2024/04/18 16:38:07;;;;;;;0.63;0.40;;;;;;;;;;14032555;21;20888;-80
2024/04/18 16:43:14;;;;;;;0.30;0.30;;;;;;;;;;14032893;21;20450;-78
2024/04/18 16:48:18;;;;;;;1.92;0.40;;;;;;;;;;14033272;21;20890;-77
2024/04/18 16:53:22;;;;;;;0.85;0.30;;;;;;;;;;14031106;21;20377;-80
2024/04/18 16:58:28;;;;;;;1.30;0.40;;;;;;;;;;14024717;21;20435;-80
2024/04/18 17:03:32;;;;;;;0.70;0.30;;;;;;;;;;14029081;21;20428;-80
2024/04/18 17:08:36;;;;;;;1.50;0.30;;;;;;;;;;14029412;21;20387;-80
2024/04/18 17:13:42;;;;;;;1.60;0.60;;;;;;;;;;14028802;21;20417;-80
2024/04/18 17:18:46;;;;;;;1.58;0.60;;;;;;;;;;14030587;21;20332;-80
2024/04/18 17:23:54;;;;;;;2.00;0.43;;;;;;;;;;14027902;21;20436;-80
2024/04/18 17:29:01;;;;;;;1.83;0.90;;;;;;;;;;14031549;21;20458;-80
2024/04/18 17:34:04;;;;;;;1.50;0.90;;;;;;;;;;14032182;21;20433;-80
2024/04/18 17:39:09;;;;;;;2.60;1.00;;;;;;;;;;14035151;21;20425;-80
2024/04/18 17:44:15;;;;;;;1.60;0.80;;;;;;;;;;14032270;21;20611;-79
2024/04/18 17:49:19;;;;;;;1.37;0.93;;;;;;;;;;14030843;21;20771;-82
2024/04/18 17:54:23;;;;;;;1.20;0.80;;;;;;;;;;14036328;21;20375;-80
2024/04/18 17:59:30;;;;;;;2.15;0.70;;;;;;;;;;14031377;21;20409;-80
2024/04/18 18:04:34;;;;;;;2.47;1.15;;;;;;;;;;14028603;21;20328;-79
2024/04/18 18:09:41;;;;;;;1.38;1.08;;;;;;;;;;14031120;21;20375;-79
2024/04/18 18:14:48;;;;;;;4.53;2.07;;;;;;;;;;14030624;21;20383;-80
2024/04/18 18:19:52;;;;;;;3.72;1.90;;;;;;;;;;14028187;21;20725;-79
2024/04/18 18:24:56;;;;;;;3.17;1.60;;;;;;;;;;14029515;21;20339;-81
2024/04/18 18:30:02;;;;;;;1.70;1.20;;;;;;;;;;14027816;21;21064;-79
2024/04/18 18:35:08;;;;;;;2.97;1.17;;;;;;;;;;14030754;21;20454;-79
2024/04/18 18:40:13;;;;;;;2.47;1.25;;;;;;;;;;14034515;21;20433;-83
2024/04/18 18:45:19;;;;;;;1.92;1.27;;;;;;;;;;14031608;21;20324;-80
2024/04/18 18:50:23;;;;;;;8.77;5.38;;;;;;;;;;14031942;21;20359;-80
2024/04/18 18:55:30;;;;;;;13.82;8.40;;;;;;;;;;14032278;21;20877;-78
2024/04/18 19:00:37;;;;;;;9.05;6.05;;;;;;;;;;14032324;21;20315;-79
2024/04/18 19:05:46;;;;;;;4.80;3.30;;;;;;;;;;14032499;21;20740;-79
2024/04/18 19:10:50;;;;;;;5.03;4.10;;;;;;;;;;14027972;21;20433;-78
2024/04/18 19:15:59;;;;;;;5.47;3.67;;;;;;;;;;14029031;21;20336;-80
2024/04/18 19:21:02;;;;;;;6.10;3.63;;;;;;;;;;14029577;21;20394;-80
2024/04/18 19:26:07;;;;;;;5.00;2.92;;;;;;;;;;14023728;21;20319;-80
2024/04/18 19:31:13;;;;;;;5.78;3.35;;;;;;;;;;14025580;21;20902;-81
2024/04/18 19:36:20;;;;;;;5.63;3.65;;;;;;;;;;14025867;21;20324;-81
2024/04/18 19:41:24;;;;;;;5.72;3.45;;;;;;;;;;14022311;21;20324;-81
2024/04/18 19:46:31;;;;;;;3.97;2.78;;;;;;;;;;14028552;21;20328;-81
2024/04/18 19:51:34;;;;;;;4.10;2.83;;;;;;;;;;14028549;21;20627;-81
2024/04/18 19:56:38;;;;;;;3.95;2.80;;;;;;;;;;14027231;21;20425;-81
2024/04/18 20:01:45;;;;;;;4.40;2.58;;;;;;;;;;14028252;21;20413;-82
2024/04/18 20:06:49;;;;;;;5.63;3.33;;;;;;;;;;14029348;21;20327;-83
2024/04/18 20:11:53;;;;;;;7.95;3.47;;;;;;;;;;14025120;21;20425;-82
2024/04/18 20:16:59;;;;;;;3.70;2.20;;;;;;;;;;14026753;21;20423;-86
2024/04/18 20:22:03;;;;;;;3.57;2.23;;;;;;;;;;14031118;21;20362;-83
2024/04/18 20:27:07;;;;;;;3.60;2.08;;;;;;;;;;14024999;21;20327;-82
2024/04/18 20:32:14;;;;;;;2.92;1.92;;;;;;;;;;14026316;21;20320;-83
2024/04/18 20:37:18;;;;;;;3.63;1.90;;;;;;;;;;14028584;21;20447;-82
2024/04/18 20:42:22;;;;;;;3.00;2.15;;;;;;;;;;14029505;21;20784;-82
2024/04/18 20:47:28;;;;;;;3.20;2.10;;;;;;;;;;14029237;21;20451;-84
2024/04/18 20:52:32;;;;;;;3.97;2.13;;;;;;;;;;14030750;21;20344;-82
2024/04/18 20:57:36;;;;;;;4.07;2.88;;;;;;;;;;14025822;21;20404;-82
2024/04/18 21:02:42;;;;;;;4.10;2.92;;;;;;;;;;14030166;21;20754;-83
2024/04/18 21:07:46;;;;;;;4.45;2.60;;;;;;;;;;14032832;21;20732;-82
2024/04/18 21:12:50;;;;;;;2.97;2.23;;;;;;;;;;14030355;21;20694;-82
2024/04/18 21:17:56;;;;;;;3.53;2.90;;;;;;;;;;14034542;21;20437;-82
2024/04/18 21:23:00;;;;;;;6.88;3.10;;;;;;;;;;14035690;21;20459;-83
2024/04/18 21:28:05;;;;;;;4.30;3.05;;;;;;;;;;14035343;21;20347;-82
2024/04/18 21:33:11;;;;;;;5.18;3.33;;;;;;;;;;14034314;21;20727;-83
2024/04/18 21:38:15;;;;;;;4.68;3.03;;;;;;;;;;14030935;21;20364;-84
2024/04/18 21:43:19;;;;;;;5.40;3.38;;;;;;;;;;14033368;21;20380;-86
2024/04/18 21:48:26;;;;;;;5.18;3.05;;;;;;;;;;14044454;21;20431;-82
2024/04/18 21:53:29;;;;;;;4.30;3.05;;;;;;;;;;14048363;21;20320;-81
2024/04/18 21:58:33;;;;;;;7.50;3.33;;;;;;;;;;14046094;21;20351;-81
2024/04/18 22:03:40;;;;;;;3.90;3.15;;;;;;;;;;14048790;21;20402;-81
2024/04/18 22:08:43;;;;;;;3.88;3.00;;;;;;;;;;14050092;21;20324;-80
2024/04/18 22:13:47;;;;;;;4.20;3.30;;;;;;;;;;14050208;21;20426;-80
2024/04/18 22:18:54;;;;;;;4.43;3.10;;;;;;;;;;14054215;21;20417;-80
2024/04/18 22:23:58;;;;;;;4.20;3.00;;;;;;;;;;14054366;21;20763;-80
2024/04/18 22:29:02;;;;;;;4.63;2.83;;;;;;;;;;14050023;21;20804;-81
2024/04/18 22:34:08;;;;;;;4.57;2.65;;;;;;;;;;14050544;21;20348;-81
2024/04/18 22:39:12;;;;;;;3.88;2.80;;;;;;;;;;14051288;21;20689;-79
2024/04/18 22:44:16;;;;;;;4.72;2.65;;;;;;;;;;14051068;21;20770;-80
2024/04/18 22:49:23;;;;;;;4.38;2.60;;;;;;;;;;14053576;21;20413;-80
2024/04/18 22:54:26;;;;;;;5.20;3.83;;;;;;;;;;14052871;21;20347;-81
2024/04/18 22:59:30;;;;;;;4.82;3.75;;;;;;;;;;14052559;21;20355;-81
2024/04/18 23:04:37;;;;;;;3.40;3.03;;;;;;;;;;14051935;21;20386;-81
2024/04/18 23:09:41;;;;;;;4.00;2.97;;;;;;;;;;14051855;21;20445;-80
2024/04/18 23:14:47;;;;;;;3.65;2.92;;;;;;;;;;14041854;20;21003;-81
2024/04/18 23:19:53;;;;;;;3.80;3.10;;;;;;;;;;14048933;21;20423;-81
2024/04/18 23:24:57;;;;;;;5.23;3.27;;;;;;;;;;14053106;21;20399;-80
2024/04/18 23:30:02;;;;;;;3.88;3.20;;;;;;;;;;14053327;21;20796;-81
2024/04/18 23:35:09;;;;;;;4.40;3.20;;;;;;;;;;14051140;21;20376;-80
2024/04/18 23:40:13;;;;;;;5.17;3.30;;;;;;;;;;14051595;21;20368;-81
2024/04/18 23:45:17;;;;;;;4.80;3.07;;;;;;;;;;14051870;21;20798;-80
2024/04/18 23:50:23;;;;;;;9.07;3.40;;;;;;;;;;14042035;21;20486;-81
2024/04/18 23:55:28;;;;;;;4.40;2.90;;;;;;;;;;14050834;21;20393;-80
